Time;durP1;ratioP1;P1;durP2;ratioP2;P2;SDS_P1;SDS_P2;PMS_P1;PMS_P2;Temp;Humidity;BMP_temperature;BMP_pressure;BME280_temperature;BME280_humidity;BME280_pressure;Samples;Min_cycle;Max_cycle;Signal;HPM_P1;HPM_P2
2023/01/22 00:02:23;;;;;;;45.47;19.40;;;-0.60;99.90;;;;;;5071836;28;20173;-56
2023/01/22 00:04:48;;;;;;;43.57;18.57;;;-1.00;99.90;;;;;;5065543;28;20639;-57
2023/01/22 00:07:16;;;;;;;49.00;20.60;;;-0.60;99.90;;;;;;5072362;28;20182;-57
2023/01/22 00:09:42;;;;;;;54.33;20.57;;;-0.90;99.90;;;;;;5070941;28;20204;-57
2023/01/22 00:12:08;;;;;;;48.70;20.47;;;-1.00;99.90;;;;;;5071989;28;20242;-57
2023/01/22 00:14:34;;;;;;;51.47;19.77;;;-0.90;99.90;;;;;;5071482;28;20627;-57
2023/01/22 00:17:00;;;;;;;48.93;19.00;;;-1.20;99.90;;;;;;5072012;28;20180;-56
2023/01/22 00:19:25;;;;;;;40.80;17.80;;;-0.70;99.90;;;;;;5072056;28;20253;-57
2023/01/22 00:21:51;;;;;;;46.20;20.37;;;;;;;;;;5071660;28;20183;-57
2023/01/22 00:24:17;;;;;;;44.20;19.60;;;-1.00;99.90;;;;;;5070793;28;20532;-56
2023/01/22 00:26:43;;;;;;;45.77;19.40;;;-0.90;99.90;;;;;;5071748;28;20215;-57
2023/01/22 00:29:08;;;;;;;42.20;19.80;;;-1.20;99.90;;;;;;5071870;28;20218;-56
2023/01/22 00:31:34;;;;;;;50.53;19.43;;;-1.00;99.90;;;;;;5071351;28;20188;-56
2023/01/22 00:34:00;;;;;;;49.13;20.27;;;-0.80;99.90;;;;;;5071499;28;20180;-56
2023/01/22 00:36:25;;;;;;;43.57;18.87;;;-0.60;99.90;;;;;;5071318;28;20204;-56
2023/01/22 00:38:51;;;;;;;43.83;18.30;;;-0.90;99.90;;;;;;5053449;28;20204;-56
2023/01/22 00:41:19;;;;;;;44.90;18.80;;;-1.00;99.90;;;;;;5054259;28;20623;-56
2023/01/22 00:43:44;;;;;;;46.77;19.80;;;-1.20;99.90;;;;;;5071299;28;20200;-56
2023/01/22 00:46:15;;;;;;;47.57;18.70;;;-1.10;99.90;;;;;;5071548;28;20215;-55
2023/01/22 00:48:41;;;;;;;47.90;18.87;;;-1.50;99.90;;;;;;5069314;28;20187;-56
2023/01/22 00:51:07;;;;;;;45.20;18.20;;;-1.10;99.90;;;;;;5071375;28;20713;-56
2023/01/22 00:53:36;;;;;;;48.47;20.37;;;-1.20;99.90;;;;;;5071395;28;20179;-56
2023/01/22 00:56:02;;;;;;;54.23;19.77;;;-1.30;99.90;;;;;;5071465;28;20173;-56
2023/01/22 00:58:28;;;;;;;43.20;18.67;;;-1.20;99.90;;;;;;5071101;28;20218;-56
2023/01/22 01:00:54;;;;;;;49.90;19.17;;;-1.50;99.90;;;;;;5071000;28;20173;-56
2023/01/22 01:03:27;;;;;;;53.47;20.60;;;-1.50;99.90;;;;;;5064637;28;20269;-56
2023/01/22 01:06:05;;;;;;;60.00;19.70;;;-1.30;99.90;;;;;;5071359;28;20176;-56
2023/01/22 01:08:35;;;;;;;56.93;20.50;;;-1.30;99.90;;;;;;5071340;28;20732;-56
2023/01/22 01:11:04;;;;;;;49.87;19.37;;;-1.30;99.90;;;;;;5071381;28;20346;-56
2023/01/22 01:13:32;;;;;;;54.27;20.57;;;-1.20;99.90;;;;;;5070940;28;20172;-56
2023/01/22 01:16:07;;;;;;;51.47;20.23;;;-1.20;99.90;;;;;;5070053;28;20209;-56
2023/01/22 01:18:34;;;;;;;51.97;19.80;;;-1.30;99.90;;;;;;5070817;28;20211;-56
2023/01/22 01:21:00;;;;;;;48.40;19.57;;;-1.30;99.90;;;;;;5070514;28;20576;-56
2023/01/22 01:23:27;;;;;;;51.00;20.30;;;-1.20;99.90;;;;;;5070353;28;20197;-56
2023/01/22 01:25:53;;;;;;;55.43;19.43;;;-1.30;99.90;;;;;;5070618;28;20173;-56
2023/01/22 01:28:19;;;;;;;57.97;19.47;;;-1.60;99.90;;;;;;5070645;28;20206;-56
2023/01/22 01:30:45;;;;;;;48.97;19.37;;;-1.40;99.90;;;;;;5070581;28;20716;-56
2023/01/22 01:33:11;;;;;;;45.90;18.87;;;;;;;;;;5070320;28;20168;-56
2023/01/22 01:35:37;;;;;;;48.93;20.70;;;;;;;;;;5069478;28;20180;-56
2023/01/22 01:38:02;;;;;;;54.83;20.13;;;-1.00;99.90;;;;;;5070413;28;20645;-57
2023/01/22 01:40:28;;;;;;;49.23;19.90;;;-1.20;99.90;;;;;;5070717;28;20184;-56
2023/01/22 01:42:54;;;;;;;47.80;19.87;;;-1.50;99.90;;;;;;5070147;28;20650;-56
2023/01/22 01:45:23;;;;;;;49.00;19.57;;;-1.30;99.90;;;;;;5070271;28;20263;-56
2023/01/22 01:47:57;;;;;;;47.80;20.93;;;-1.30;99.90;;;;;;5070686;28;20217;-56
2023/01/22 01:50:26;;;;;;;44.60;18.67;;;-1.50;99.90;;;;;;5070488;28;20577;-56
2023/01/22 01:52:52;;;;;;;58.90;20.53;;;-1.30;99.90;;;;;;5052606;28;20178;-57
2023/01/22 01:55:23;;;;;;;55.63;20.43;;;-1.30;99.90;;;;;;5052025;28;20553;-56
2023/01/22 01:57:50;;;;;;;51.90;20.20;;;-1.30;99.90;;;;;;5069165;28;20171;-56
2023/01/22 02:00:17;;;;;;;51.73;18.93;;;-1.30;99.90;;;;;;5068754;28;20170;-55
2023/01/22 02:02:43;;;;;;;48.57;18.77;;;-1.30;99.90;;;;;;5065547;28;20196;-55
2023/01/22 02:05:09;;;;;;;50.60;19.47;;;-1.30;99.90;;;;;;5070587;28;20186;-55
2023/01/22 02:07:35;;;;;;;51.37;20.10;;;-1.30;99.90;;;;;;5035807;28;20185;-55
2023/01/22 02:10:03;;;;;;;53.20;19.93;;;-1.50;99.90;;;;;;5070359;28;20265;-55
2023/01/22 02:12:30;;;;;;;46.47;18.53;;;-1.20;99.90;;;;;;5070455;28;20181;-55
2023/01/22 02:14:56;;;;;;;49.40;18.97;;;-1.30;99.90;;;;;;5070337;28;20177;-54
2023/01/22 02:17:22;;;;;;;47.17;19.50;;;-1.20;99.90;;;;;;5069671;28;20169;-55
2023/01/22 02:19:48;;;;;;;48.23;19.00;;;-1.00;99.90;;;;;;5069907;28;20212;-56
2023/01/22 02:22:26;;;;;;;50.57;19.77;;;-1.20;99.90;;;;;;5070042;28;20172;-56
2023/01/22 02:24:52;;;;;;;53.40;19.60;;;-1.30;99.90;;;;;;5069529;28;20184;-56
2023/01/22 02:27:18;;;;;;;43.93;18.97;;;-1.20;99.90;;;;;;5069789;28;20176;-61
2023/01/22 02:29:43;;;;;;;51.37;19.37;;;-0.90;99.90;;;;;;5069436;28;20216;-56
2023/01/22 02:32:10;;;;;;;45.93;18.17;;;;;;;;;;5069995;28;20575;-56
2023/01/22 02:34:35;;;;;;;49.33;18.70;;;-1.30;99.90;;;;;;5070213;28;20181;-56
2023/01/22 02:37:01;;;;;;;44.03;18.37;;;-1.30;99.90;;;;;;5051688;28;20212;-56
2023/01/22 02:39:27;;;;;;;49.63;19.43;;;-1.20;99.90;;;;;;5069968;28;20674;-56
2023/01/22 02:41:52;;;;;;;43.63;19.40;;;-1.50;99.90;;;;;;5069520;28;20632;-56
2023/01/22 02:44:18;;;;;;;47.57;17.87;;;-1.80;99.90;;;;;;5069181;28;20593;-55
2023/01/22 02:46:43;;;;;;;54.80;19.43;;;-1.40;99.90;;;;;;5070644;28;20294;-56
2023/01/22 02:49:09;;;;;;;43.77;18.40;;;-1.40;99.90;;;;;;5070538;28;20176;-56
2023/01/22 02:51:35;;;;;;;46.17;17.13;;;;;;;;;;5069095;28;20540;-56
2023/01/22 02:54:01;;;;;;;49.83;18.67;;;-1.50;99.90;;;;;;5073641;28;20215;-56
2023/01/22 02:56:26;;;;;;;50.33;18.97;;;-1.30;99.90;;;;;;5073605;28;20551;-56
2023/01/22 02:58:52;;;;;;;52.17;19.97;;;-1.50;99.90;;;;;;5073810;28;20635;-56
2023/01/22 03:01:20;;;;;;;40.67;17.93;;;-1.40;99.90;;;;;;5071717;28;20179;-56
2023/01/22 03:03:54;;;;;;;52.23;19.37;;;-1.30;99.90;;;;;;5073471;28;20226;-56
2023/01/22 03:06:21;;;;;;;47.73;17.77;;;-1.50;99.90;;;;;;5073361;28;20183;-56
2023/01/22 03:08:48;;;;;;;49.27;18.80;;;-1.30;99.90;;;;;;5073382;28;20180;-56
2023/01/22 03:11:14;;;;;;;48.87;18.83;;;-1.20;99.90;;;;;;5073366;28;20634;-56
2023/01/22 03:21:51;;;;;;;49.33;19.23;;;-1.40;99.90;;;;;;5072952;28;20728;-56
2023/01/22 03:24:17;;;;;;;46.30;18.80;;;;;;;;;;5072599;28;20172;-56
2023/01/22 03:26:43;;;;;;;46.13;19.37;;;-1.20;99.90;;;;;;5072597;28;20176;-56
2023/01/22 03:29:08;;;;;;;47.90;19.07;;;-1.20;99.90;;;;;;5071279;28;20670;-56
2023/01/22 03:31:34;;;;;;;49.90;19.70;;;-1.20;99.90;;;;;;5072585;28;20464;-56
2023/01/22 03:34:00;;;;;;;46.40;18.60;;;-1.30;99.90;;;;;;5072665;28;20191;-57
2023/01/22 03:36:25;;;;;;;48.97;18.70;;;-1.60;99.90;;;;;;5072578;28;20182;-57
2023/01/22 03:38:51;;;;;;;51.43;19.07;;;-1.30;99.90;;;;;;5072743;28;20172;-57
2023/01/22 03:41:17;;;;;;;47.93;18.60;;;-1.40;99.90;;;;;;5072953;28;20180;-56
2023/01/22 03:43:44;;;;;;;48.87;18.83;;;-1.10;99.90;;;;;;5072252;28;20683;-57
2023/01/22 03:46:15;;;;;;;48.50;18.77;;;-1.20;99.90;;;;;;5071203;28;20177;-56
2023/01/22 03:48:41;;;;;;;49.10;17.30;;;-1.40;99.90;;;;;;5061590;28;20169;-57
2023/01/22 03:51:15;;;;;;;47.57;18.07;;;-1.20;99.90;;;;;;5055151;28;20275;-56
2023/01/22 03:53:42;;;;;;;45.50;18.60;;;-1.20;99.90;;;;;;5055305;28;20203;-56
2023/01/22 03:56:11;;;;;;;48.43;18.77;;;-1.20;99.90;;;;;;5056504;28;20195;-56
2023/01/22 03:58:37;;;;;;;48.87;17.73;;;-0.60;99.90;;;;;;5070482;28;20263;-56
2023/01/22 04:01:05;;;;;;;47.60;17.37;;;-1.20;99.90;;;;;;5072317;28;20198;-56
2023/01/22 04:03:32;;;;;;;48.03;18.70;;;-1.20;99.90;;;;;;5072052;28;20182;-56
2023/01/22 04:06:00;;;;;;;46.70;18.10;;;-1.20;99.90;;;;;;5072553;28;20193;-56
2023/01/22 04:08:32;;;;;;;46.73;17.17;;;-1.20;99.90;;;;;;5071836;28;20177;-55
2023/01/22 04:10:59;;;;;;;47.73;18.10;;;-1.20;99.90;;;;;;5072157;28;20292;-56
2023/01/22 04:13:26;;;;;;;44.77;17.93;;;-1.20;99.90;;;;;;5071851;28;20187;-55
2023/01/22 04:15:52;;;;;;;47.03;18.80;;;-1.20;99.90;;;;;;5054281;28;20628;-55
2023/01/22 04:18:17;;;;;;;54.30;19.50;;;-1.20;99.90;;;;;;5071430;28;20219;-55
2023/01/22 04:20:44;;;;;;;47.97;18.73;;;-1.10;99.90;;;;;;5071698;28;20374;-55
2023/01/22 04:23:10;;;;;;;47.80;18.10;;;;;;;;;;5071586;28;20225;-56
2023/01/22 04:25:36;;;;;;;48.80;18.43;;;-1.00;99.90;;;;;;5071729;28;20176;-56
2023/01/22 04:28:02;;;;;;;49.83;18.43;;;-0.90;99.90;;;;;;5071698;28;20674;-56
2023/01/22 04:30:28;;;;;;;52.77;19.03;;;-1.00;99.90;;;;;;5071567;28;20276;-56
2023/01/22 04:32:53;;;;;;;45.00;18.53;;;-1.00;99.90;;;;;;5071683;28;20705;-56
2023/01/22 04:35:19;;;;;;;51.67;19.27;;;-0.90;99.90;;;;;;5071304;28;20180;-56
2023/01/22 04:37:45;;;;;;;55.40;20.03;;;-1.00;99.90;;;;;;5071155;28;20265;-56
2023/01/22 04:40:11;;;;;;;48.00;18.20;;;-0.90;99.90;;;;;;5071521;28;20176;-56
2023/01/22 04:42:36;;;;;;;47.47;18.97;;;-0.90;99.90;;;;;;5066935;28;20172;-56
2023/01/22 04:45:02;;;;;;;45.77;18.50;;;-0.90;99.90;;;;;;5066276;28;20591;-58
2023/01/22 04:47:28;;;;;;;43.67;17.57;;;-1.10;99.90;;;;;;5064987;28;20202;-56
2023/01/22 04:49:53;;;;;;;43.17;18.47;;;-0.70;99.90;;;;;;5067410;28;20584;-55
2023/01/22 04:52:19;;;;;;;44.93;17.73;;;-0.80;99.90;;;;;;5070563;28;20169;-56
2023/01/22 04:54:45;;;;;;;44.80;18.07;;;-1.10;99.90;;;;;;5070954;28;20232;-56
2023/01/22 04:57:11;;;;;;;48.47;18.70;;;-2.80;99.90;;;;;;5071439;28;20674;-56
2023/01/22 04:59:37;;;;;;;43.47;17.27;;;-0.80;99.90;;;;;;5071407;28;20677;-56
2023/01/22 05:02:03;;;;;;;47.33;19.37;;;-0.70;99.90;;;;;;5070964;28;20173;-57
2023/01/22 05:04:28;;;;;;;48.30;19.63;;;-0.70;99.90;;;;;;5053369;28;20175;-57
2023/01/22 05:06:54;;;;;;;47.77;17.33;;;-0.80;99.90;;;;;;5071258;28;20200;-57
2023/01/22 05:09:20;;;;;;;40.50;17.60;;;-0.50;99.90;;;;;;5070993;28;20571;-57
2023/01/22 05:11:45;;;;;;;44.90;17.53;;;-0.70;99.90;;;;;;5071274;28;20184;-57
2023/01/22 05:14:11;;;;;;;42.43;16.70;;;-0.60;99.90;;;;;;5069910;28;20577;-55
2023/01/22 05:16:37;;;;;;;45.17;16.63;;;-0.60;99.90;;;;;;5070947;28;20180;-55
2023/01/22 05:19:02;;;;;;;42.33;16.40;;;-0.50;99.90;;;;;;5070671;28;20216;-55
2023/01/22 05:21:28;;;;;;;42.13;18.03;;;1.40;99.90;;;;;;5070835;28;20211;-56
2023/01/22 05:23:55;;;;;;;38.43;16.17;;;0.20;99.90;;;;;;5070494;28;20199;-55
2023/01/22 05:26:20;;;;;;;47.23;17.63;;;-0.60;99.90;;;;;;5070653;28;20230;-55
2023/01/22 05:28:46;;;;;;;44.53;17.00;;;-0.50;99.90;;;;;;5070646;28;20183;-55
2023/01/22 05:31:12;;;;;;;45.70;19.07;;;-1.00;99.90;;;;;;5070437;28;20225;-54
2023/01/22 05:33:41;;;;;;;46.93;16.63;;;0.30;99.90;;;;;;5070212;28;20173;-55
2023/01/22 05:36:08;;;;;;;47.73;17.67;;;-0.60;99.90;;;;;;5070704;28;20177;-55
2023/01/22 05:38:34;;;;;;;39.33;17.47;;;-0.70;99.90;;;;;;5070102;28;20198;-54
2023/01/22 05:41:00;;;;;;;39.97;17.70;;;-0.30;99.90;;;;;;5070428;28;20259;-55
2023/01/22 05:43:25;;;;;;;35.20;15.87;;;-0.60;99.90;;;;;;5070157;28;20243;-55
2023/01/22 05:45:51;;;;;;;43.10;17.93;;;-0.60;99.90;;;;;;5069480;28;20704;-55
2023/01/22 05:48:17;;;;;;;42.77;16.17;;;-0.30;99.90;;;;;;5070158;28;20238;-55
2023/01/22 05:50:42;;;;;;;36.30;15.87;;;;;;;;;;5070602;28;20262;-55
2023/01/22 05:53:08;;;;;;;43.93;17.40;;;-0.60;99.90;;;;;;5070354;28;20259;-55
2023/01/22 05:55:34;;;;;;;39.93;16.10;;;-1.00;99.90;;;;;;5070308;28;20190;-56
2023/01/22 05:58:01;;;;;;;43.47;16.67;;;-0.40;99.90;;;;;;5069773;28;20181;-57
2023/01/22 06:00:27;;;;;;;47.47;17.53;;;-0.60;99.90;;;;;;5069898;28;20178;-56
2023/01/22 06:02:58;;;;;;;43.60;16.57;;;-0.70;99.90;;;;;;5069844;28;20228;-55
2023/01/22 06:05:24;;;;;;;37.33;16.70;;;-0.50;99.90;;;;;;5069686;28;20599;-55
2023/01/22 06:07:49;;;;;;;37.90;17.03;;;-0.70;99.90;;;;;;5069525;28;20181;-55
2023/01/22 06:10:16;;;;;;;38.97;16.70;;;-0.50;99.90;;;;;;5069540;28;20280;-55
2023/01/22 06:12:41;;;;;;;44.30;17.07;;;-0.60;99.90;;;;;;5069888;28;20176;-55
2023/01/22 06:15:08;;;;;;;41.17;16.80;;;-0.30;99.90;;;;;;5070116;28;20191;-55
2023/01/22 06:17:33;;;;;;;39.33;16.00;;;-0.60;99.90;;;;;;5067612;28;20235;-55
2023/01/22 06:19:59;;;;;;;40.07;16.60;;;-0.50;99.90;;;;;;5056614;28;20590;-55
2023/01/22 06:22:24;;;;;;;37.33;17.00;;;-0.40;99.90;;;;;;5062709;28;20208;-55
2023/01/22 06:24:50;;;;;;;38.50;16.50;;;-0.30;99.90;;;;;;5060498;28;20184;-56
2023/01/22 06:27:16;;;;;;;39.07;16.70;;;-0.20;99.90;;;;;;5062052;28;20202;-55
2023/01/22 06:29:42;;;;;;;40.03;16.87;;;;;;;;;;5059627;28;20239;-55
2023/01/22 06:32:08;;;;;;;36.50;16.13;;;-0.40;99.90;;;;;;5073981;28;20208;-55
2023/01/22 06:34:33;;;;;;;39.70;16.53;;;-0.50;99.90;;;;;;5073842;28;20262;-56
2023/01/22 06:36:59;;;;;;;39.20;16.67;;;-0.20;99.90;;;;;;5073724;28;20195;-55
2023/01/22 06:39:25;;;;;;;42.33;17.33;;;-0.10;99.90;;;;;;5074598;28;20173;-56
2023/01/22 06:41:50;;;;;;;37.83;15.57;;;-0.10;99.90;;;;;;5074083;28;20181;-55
2023/01/22 06:44:17;;;;;;;40.60;15.87;;;-0.40;99.90;;;;;;5073983;28;20171;-56
2023/01/22 06:46:44;;;;;;;33.43;16.73;;;;;;;;;;5073684;28;20229;-56
2023/01/22 06:49:10;;;;;;;38.23;16.63;;;-0.20;99.90;;;;;;5073444;28;20192;-56
2023/01/22 06:51:36;;;;;;;38.53;15.70;;;-0.30;99.90;;;;;;5073892;28;20190;-56
2023/01/22 06:54:01;;;;;;;40.50;16.13;;;-0.50;99.90;;;;;;5073657;28;20180;-56
2023/01/22 06:56:27;;;;;;;34.40;15.33;;;0.00;99.90;;;;;;5073788;28;20211;-55
2023/01/22 06:58:52;;;;;;;42.83;15.90;;;-0.20;99.90;;;;;;5073715;28;20169;-55
2023/01/22 07:01:18;;;;;;;35.57;15.70;;;-0.10;99.90;;;;;;5073835;28;20190;-55
2023/01/22 07:03:44;;;;;;;36.77;16.07;;;0.00;99.90;;;;;;5073713;28;20192;-55
2023/01/22 07:06:10;;;;;;;37.90;15.77;;;-0.10;99.90;;;;;;5073584;28;20199;-55
2023/01/22 07:08:36;;;;;;;34.30;15.93;;;-0.40;99.90;;;;;;5073502;28;20627;-55
2023/01/22 07:11:02;;;;;;;37.40;15.83;;;0.00;99.90;;;;;;5073514;28;20215;-55
2023/01/22 07:13:27;;;;;;;35.37;16.17;;;-0.10;99.90;;;;;;5069245;28;20167;-55
2023/01/22 07:15:53;;;;;;;37.20;16.17;;;0.20;99.90;;;;;;5070043;28;20206;-55
2023/01/22 07:18:20;;;;;;;37.13;15.53;;;0.10;99.90;;;;;;5073356;28;20207;-55
2023/01/22 07:20:46;;;;;;;42.13;15.80;;;0.10;99.90;;;;;;5069753;28;20256;-56
2023/01/22 07:23:12;;;;;;;34.40;16.23;;;;;;;;;;5062091;28;20626;-55
2023/01/22 07:25:38;;;;;;;39.43;16.60;;;0.00;99.90;;;;;;5073306;28;20237;-56
2023/01/22 07:28:05;;;;;;;30.20;14.37;;;0.10;99.90;;;;;;5072710;28;20176;-56
2023/01/22 07:30:31;;;;;;;33.87;15.07;;;0.20;99.90;;;;;;5072536;28;20707;-56
2023/01/22 07:32:59;;;;;;;37.30;16.10;;;-0.30;99.90;;;;;;5051335;28;20180;-56
2023/01/22 07:35:25;;;;;;;33.83;16.10;;;0.00;99.90;;;;;;5071523;28;20192;-57
2023/01/22 07:37:55;;;;;;;35.80;16.23;;;0.20;99.90;;;;;;5072812;28;20199;-56
2023/01/22 07:40:23;;;;;;;35.47;15.63;;;-0.20;99.90;;;;;;5072070;28;20189;-55
2023/01/22 07:42:49;;;;;;;36.40;15.93;;;-0.10;99.90;;;;;;5072679;28;20175;-60
2023/01/22 07:45:18;;;;;;;37.47;15.77;;;-0.10;99.90;;;;;;5073009;28;20251;-56
2023/01/22 07:47:56;;;;;;;36.03;16.10;;;0.30;99.90;;;;;;5072329;28;20173;-56
2023/01/22 07:50:28;;;;;;;37.43;15.27;;;0.00;99.90;;;;;;5054446;28;20677;-56
2023/01/22 07:52:54;;;;;;;37.47;16.30;;;-0.20;99.90;;;;;;5071307;28;20183;-56
2023/01/22 07:55:20;;;;;;;38.93;16.13;;;0.10;99.90;;;;;;5071842;28;20183;-54
2023/01/22 07:57:46;;;;;;;31.30;14.37;;;0.00;99.90;;;;;;5072397;28;20182;-55
2023/01/22 08:00:14;;;;;;;37.10;16.47;;;1.60;99.90;;;;;;5054371;28;20179;-55
2023/01/22 08:02:41;;;;;;;32.90;15.50;;;0.20;99.90;;;;;;5072190;28;20183;-56
2023/01/22 08:05:07;;;;;;;35.80;15.73;;;0.20;99.90;;;;;;5071824;28;20172;-55
2023/01/22 08:07:33;;;;;;;42.13;16.97;;;0.50;99.90;;;;;;5070475;28;20180;-60
2023/01/22 08:09:59;;;;;;;36.27;15.73;;;0.40;99.90;;;;;;5055640;28;20208;-55
2023/01/22 08:12:24;;;;;;;37.23;15.47;;;0.30;99.90;;;;;;5072119;28;20176;-55
2023/01/22 08:14:50;;;;;;;36.40;15.93;;;0.50;99.90;;;;;;5066593;28;20172;-56
2023/01/22 08:17:15;;;;;;;29.33;14.53;;;0.60;99.90;;;;;;5070234;28;20177;-55
2023/01/22 08:19:41;;;;;;;30.13;14.67;;;0.90;99.90;;;;;;5073193;28;20292;-55
2023/01/22 08:22:07;;;;;;;34.30;15.20;;;1.40;99.90;;;;;;5064958;28;20168;-55
2023/01/22 08:24:35;;;;;;;30.37;14.20;;;1.10;99.90;;;;;;5092143;28;20171;-55
2023/01/22 08:27:02;;;;;;;28.43;13.40;;;1.20;99.90;;;;;;5092177;28;20182;-55
2023/01/22 08:29:27;;;;;;;32.13;14.00;;;1.60;99.90;;;;;;5092190;28;20658;-56
2023/01/22 08:31:53;;;;;;;32.40;14.17;;;1.50;99.90;;;;;;5076365;28;20204;-55
2023/01/22 08:34:20;;;;;;;25.47;13.37;;;1.80;99.90;;;;;;5071771;28;20187;-56
2023/01/22 08:36:46;;;;;;;24.57;12.87;;;1.80;99.90;;;;;;5090897;28;20183;-57
2023/01/22 08:39:12;;;;;;;29.17;14.20;;;1.40;99.90;;;;;;5088561;28;20539;-56
2023/01/22 08:41:41;;;;;;;30.67;14.13;;;1.50;99.90;;;;;;5085723;28;20183;-57
2023/01/22 08:44:10;;;;;;;28.63;13.37;;;0.70;99.90;;;;;;5079485;28;20245;-56
2023/01/22 08:46:39;;;;;;;25.27;12.77;;;1.50;99.90;;;;;;5071552;28;20199;-55
2023/01/22 08:49:05;;;;;;;23.43;12.93;;;0.90;99.90;;;;;;5089699;28;20163;-56
2023/01/22 08:51:31;;;;;;;26.00;13.40;;;;;;;;;;5091913;28;20306;-56
2023/01/22 08:53:56;;;;;;;30.27;13.17;;;1.70;99.90;;;;;;5090543;28;20579;-55
2023/01/22 08:56:22;;;;;;;26.30;13.97;;;;;;;;;;5091498;28;20315;-56
2023/01/22 08:58:49;;;;;;;26.30;12.80;;;1.30;99.90;;;;;;5091831;28;20504;-56
2023/01/22 09:01:16;;;;;;;29.73;12.37;;;1.30;99.90;;;;;;5081527;28;20176;-57
2023/01/22 09:03:42;;;;;;;25.90;12.40;;;1.10;99.90;;;;;;5077643;28;20557;-56
2023/01/22 09:06:08;;;;;;;27.23;13.33;;;1.10;99.90;;;;;;5050355;28;20188;-57
2023/01/22 09:08:34;;;;;;;31.63;13.47;;;1.10;99.90;;;;;;5063440;28;20173;-56
2023/01/22 09:10:59;;;;;;;33.27;14.07;;;1.40;99.90;;;;;;5064023;28;20224;-56
2023/01/22 09:13:25;;;;;;;28.47;13.23;;;;;;;;;;5054172;28;20261;-54
2023/01/22 09:15:55;;;;;;;27.93;13.43;;;1.20;99.90;;;;;;5051563;28;20181;-56
2023/01/22 09:18:21;;;;;;;31.07;13.70;;;1.50;99.90;;;;;;5056099;28;20168;-56
2023/01/22 09:20:46;;;;;;;27.80;13.57;;;1.40;99.90;;;;;;5070936;28;20225;-56
2023/01/22 09:23:12;;;;;;;29.50;12.90;;;1.60;99.90;;;;;;5070979;28;20168;-55
2023/01/22 09:25:37;;;;;;;26.50;14.27;;;1.50;99.90;;;;;;5071125;28;20325;-55
2023/01/22 09:28:07;;;;;;;28.70;13.37;;;1.60;99.90;;;;;;5070905;28;20662;-56
2023/01/22 09:30:33;;;;;;;27.47;13.20;;;2.00;99.90;;;;;;5071876;28;20674;-55
2023/01/22 09:33:01;;;;;;;28.73;13.37;;;2.10;99.90;;;;;;5070777;28;20205;-55
2023/01/22 09:35:27;;;;;;;27.60;12.30;;;2.20;99.90;;;;;;5076934;28;20173;-55
2023/01/22 09:37:53;;;;;;;26.97;12.53;;;2.40;99.90;;;;;;5080454;28;20186;-56
2023/01/22 09:40:44;;;;;;;27.07;13.27;;;2.20;99.90;;;;;;5090161;28;20203;-56
2023/01/22 09:43:24;;;;;;;27.17;12.10;;;2.10;99.90;;;;;;5070608;28;20674;-56
2023/01/22 09:45:55;;;;;;;26.27;12.57;;;2.30;99.90;;;;;;5070669;28;20183;-56
2023/01/22 09:48:23;;;;;;;23.47;11.40;;;2.00;99.90;;;;;;5071525;28;20177;-56
2023/01/22 09:50:49;;;;;;;23.63;11.40;;;2.20;99.90;;;;;;5070433;28;20690;-56
2023/01/22 09:53:18;;;;;;;22.33;11.30;;;2.00;99.90;;;;;;5070268;28;20237;-56
2023/01/22 09:55:49;;;;;;;20.23;10.83;;;2.30;99.90;;;;;;5070073;28;20176;-56
2023/01/22 09:58:20;;;;;;;24.37;10.93;;;2.40;99.90;;;;;;5076990;28;20299;-56
2023/01/22 10:00:54;;;;;;;23.90;11.57;;;2.10;99.90;;;;;;5050390;28;20297;-56
2023/01/22 10:03:32;;;;;;;26.33;11.77;;;1.80;99.90;;;;;;5070151;28;20193;-56
2023/01/22 10:06:11;;;;;;;26.73;11.90;;;2.30;99.90;;;;;;5071254;28;20176;-57
2023/01/22 10:08:42;;;;;;;26.13;11.93;;;2.60;99.90;;;;;;5073344;28;20255;-56
2023/01/22 10:11:09;;;;;;;21.03;10.83;;;2.20;99.90;;;;;;5071371;28;20212;-57
2023/01/22 10:13:36;;;;;;;23.10;10.80;;;2.70;99.90;;;;;;5070370;28;20703;-57
2023/01/22 10:16:03;;;;;;;22.03;11.23;;;2.70;99.90;;;;;;5071303;28;20220;-57
2023/01/22 10:19:01;;;;;;;24.53;10.77;;;2.70;99.90;;;;;;5070271;28;20168;-57
2023/01/22 10:21:33;;;;;;;26.03;11.03;;;3.10;99.90;;;;;;5042592;28;20231;-57
2023/01/22 10:23:59;;;;;;;24.43;11.67;;;3.20;99.90;;;;;;5070574;28;20199;-57
2023/01/22 10:26:36;;;;;;;25.93;11.33;;;3.40;99.90;;;;;;5070385;28;20604;-57
2023/01/22 10:29:07;;;;;;;22.17;10.50;;;3.40;99.90;;;;;;5070141;28;20195;-56
2023/01/22 10:31:39;;;;;;;24.10;11.23;;;3.00;99.90;;;;;;5071083;28;20284;-56
2023/01/22 10:34:34;;;;;;;22.37;10.83;;;3.60;99.90;;;;;;5052385;28;20169;-56
2023/01/22 10:37:18;;;;;;;23.00;10.53;;;3.80;99.90;;;;;;5077528;28;20191;-57
2023/01/22 10:39:46;;;;;;;18.80;10.27;;;3.90;99.90;;;;;;5090375;28;20172;-57
2023/01/22 10:42:21;;;;;;;22.17;11.30;;;4.40;99.90;;;;;;5090430;28;20176;-57
2023/01/22 10:44:48;;;;;;;20.37;10.70;;;4.30;99.90;;;;;;5089238;28;20171;-57
2023/01/22 10:47:19;;;;;;;21.00;11.37;;;4.70;99.90;;;;;;5081702;28;20172;-57
2023/01/22 10:49:46;;;;;;;20.10;10.33;;;4.30;99.90;;;;;;5069277;28;20200;-57
2023/01/22 10:52:30;;;;;;;19.23;10.60;;;4.10;99.90;;;;;;5069859;28;20168;-56
2023/01/22 10:54:57;;;;;;;22.37;11.17;;;3.90;99.90;;;;;;5069845;28;20182;-56
2023/01/22 10:57:33;;;;;;;23.00;10.87;;;3.80;99.90;;;;;;5067614;28;20168;-57
2023/01/22 11:00:05;;;;;;;21.47;11.17;;;3.90;99.90;;;;;;5060460;28;20231;-57
2023/01/22 11:02:33;;;;;;;23.07;10.33;;;3.90;99.90;;;;;;5051429;28;20196;-57
2023/01/22 11:05:18;;;;;;;22.57;11.30;;;3.90;99.90;;;;;;5050396;28;20177;-57
2023/01/22 11:07:46;;;;;;;26.00;11.07;;;3.70;99.90;;;;;;5050629;28;20679;-56
2023/01/22 11:10:18;;;;;;;22.43;10.83;;;3.70;99.90;;;;;;5053297;28;20209;-57
2023/01/22 11:13:07;;;;;;;19.07;10.10;;;4.00;99.90;;;;;;5053242;28;20173;-56
2023/01/22 11:15:42;;;;;;;22.30;11.13;;;3.90;99.90;;;;;;5042490;28;20186;-57
2023/01/22 11:18:17;;;;;;;23.33;11.07;;;3.90;99.90;;;;;;5053234;28;20183;-57
2023/01/22 11:20:53;;;;;;;22.63;10.90;;;3.70;99.90;;;;;;5052978;28;20225;-57
2023/01/22 11:23:41;;;;;;;25.87;10.90;;;3.80;99.90;;;;;;5053267;28;20177;-57
2023/01/22 11:26:18;;;;;;;24.43;11.17;;;4.00;99.90;;;;;;5092584;28;20721;-57
2023/01/22 11:28:50;;;;;;;21.50;10.77;;;4.00;99.90;;;;;;5093436;28;20195;-57
2023/01/22 11:31:29;;;;;;;21.70;11.07;;;3.90;99.90;;;;;;5093374;28;20219;-57
2023/01/22 11:34:10;;;;;;;25.23;11.67;;;3.90;99.90;;;;;;5090634;28;20647;-57
2023/01/22 11:36:44;;;;;;;24.17;11.60;;;3.90;99.90;;;;;;5062173;28;20184;-57
2023/01/22 11:39:31;;;;;;;22.87;11.67;;;4.20;99.90;;;;;;5072884;28;20164;-57
2023/01/22 11:42:11;;;;;;;23.10;11.83;;;4.20;99.90;;;;;;5052952;28;20252;-57
2023/01/22 11:45:14;;;;;;;22.67;11.30;;;4.20;99.90;;;;;;5065819;28;20203;-57
2023/01/22 11:47:58;;;;;;;22.23;12.30;;;4.40;99.90;;;;;;5072745;28;20276;-57
2023/01/22 11:50:43;;;;;;;20.90;11.27;;;4.40;99.90;;;;;;5072665;28;20679;-57
2023/01/22 11:53:33;;;;;;;27.27;12.30;;;4.30;99.90;;;;;;5065254;28;20218;-57
2023/01/22 11:56:14;;;;;;;24.53;11.73;;;4.00;99.90;;;;;;5072667;28;20173;-57
2023/01/22 11:59:06;;;;;;;22.70;11.53;;;4.10;99.90;;;;;;5072229;28;20173;-57
2023/01/22 12:01:49;;;;;;;23.17;12.20;;;4.10;99.90;;;;;;5061671;28;20195;-55
2023/01/22 12:05:00;;;;;;;24.27;11.63;;;4.10;99.90;;;;;;5052553;28;20235;-55
2023/01/22 12:07:34;;;;;;;22.90;11.73;;;3.90;99.90;;;;;;5058015;28;20175;-55
2023/01/22 12:10:26;;;;;;;24.77;11.13;;;4.00;99.90;;;;;;5072354;28;20287;-54
2023/01/22 12:12:57;;;;;;;22.53;11.80;;;4.00;99.90;;;;;;5071651;28;20236;-54
2023/01/22 12:15:38;;;;;;;25.50;12.83;;;3.90;99.90;;;;;;5072495;28;20176;-55
2023/01/22 12:18:13;;;;;;;32.83;12.93;;;;;;;;;;5072179;28;20173;-57
2023/01/22 12:20:51;;;;;;;28.40;13.53;;;4.60;99.90;;;;;;5051084;28;20223;-57
2023/01/22 12:23:42;;;;;;;32.27;12.57;;;4.60;99.90;;;;;;5052153;28;20604;-57
2023/01/22 12:26:22;;;;;;;22.93;12.17;;;4.90;99.90;;;;;;5055038;28;20219;-57
2023/01/22 12:28:59;;;;;;;27.97;12.63;;;5.10;99.90;;;;;;5075777;28;20187;-57
2023/01/22 12:31:44;;;;;;;20.73;12.17;;;4.70;99.90;;;;;;5078516;28;20200;-57
2023/01/22 12:34:26;;;;;;;23.43;12.27;;;4.80;99.90;;;;;;5071158;28;20719;-57
2023/01/22 12:36:54;;;;;;;30.17;11.53;;;5.10;99.90;;;;;;5071564;28;20169;-57
2023/01/22 12:39:34;;;;;;;22.53;12.13;;;5.40;99.90;;;;;;5071408;28;20173;-57
2023/01/22 12:41:59;;;;;;;24.50;11.70;;;6.10;99.90;;;;;;5071548;28;20217;-57
2023/01/22 12:44:52;;;;;;;20.30;11.27;;;5.90;99.90;;;;;;5071704;28;20180;-59
2023/01/22 12:47:44;;;;;;;22.63;11.13;;;6.20;99.90;;;;;;5065106;28;20648;-58
2023/01/22 12:50:25;;;;;;;20.67;11.43;;;6.80;99.90;;;;;;5081896;28;20220;-57
2023/01/22 12:53:18;;;;;;;17.97;10.30;;;7.80;99.90;;;;;;5082946;28;20630;-57
2023/01/22 12:55:43;;;;;;;21.10;10.60;;;7.00;99.90;;;;;;5079269;28;20200;-58